sensor_id;sensor_type;location;lat;lon;timestamp;pressure;altitude;pressure_sealevel;temperature;humidity
70434;BME280;57876;47.792;12.960;2023-06-19T00:01:18;96553.63;;;18.47;53.38
70434;BME280;57876;47.792;12.960;2023-06-19T00:03:42;96546.69;;;18.38;53.27
70434;BME280;57876;47.792;12.960;2023-06-19T00:06:06;96543.72;;;18.43;53.24
70434;BME280;57876;47.792;12.960;2023-06-19T00:08:31;96550.78;;;18.44;53.19
70434;BME280;57876;47.792;12.960;2023-06-19T00:10:55;96559.47;;;18.46;53.23
70434;BME280;57876;47.792;12.960;2023-06-19T00:13:20;96546.00;;;18.41;53.34
70434;BME280;57876;47.792;12.960;2023-06-19T00:15:44;96548.06;;;18.44;53.31
70434;BME280;57876;47.792;12.960;2023-06-19T00:18:08;96553.19;;;18.45;53.46
70434;BME280;57876;47.792;12.960;2023-06-19T00:20:34;96543.72;;;18.43;53.34
70434;BME280;57876;47.792;12.960;2023-06-19T00:23:00;96545.22;;;18.40;53.44
70434;BME280;57876;47.792;12.960;2023-06-19T00:25:24;96549.19;;;18.43;53.42
70434;BME280;57876;47.792;12.960;2023-06-19T00:27:49;96538.91;;;18.40;53.50
70434;BME280;57876;47.792;12.960;2023-06-19T00:30:13;96539.75;;;18.40;53.45
70434;BME280;57876;47.792;12.960;2023-06-19T00:32:39;96538.47;;;18.38;53.24
70434;BME280;57876;47.792;12.960;2023-06-19T00:35:10;96536.19;;;18.40;53.30
70434;BME280;57876;47.792;12.960;2023-06-19T00:37:34;96543.72;;;18.43;53.43
70434;BME280;57876;47.792;12.960;2023-06-19T00:39:59;96549.19;;;18.43;53.44
70434;BME280;57876;47.792;12.960;2023-06-19T00:42:23;96544.38;;;18.40;53.20
70434;BME280;57876;47.792;12.960;2023-06-19T00:44:48;96546.44;;;18.43;53.45
70434;BME280;57876;47.792;12.960;2023-06-19T00:47:12;96546.69;;;18.38;53.29
70434;BME280;57876;47.792;12.960;2023-06-19T00:49:36;96544.38;;;18.40;53.11
70434;BME280;57876;47.792;12.960;2023-06-19T00:52:01;96534.13;;;18.37;53.19
70434;BME280;57876;47.792;12.960;2023-06-19T00:54:26;96546.00;;;18.41;53.35
70434;BME280;57876;47.792;12.960;2023-06-19T00:56:50;96548.75;;;18.41;53.37
70434;BME280;57876;47.792;12.960;2023-06-19T00:59:17;96540.41;;;18.37;53.41
70434;BME280;57876;47.792;12.960;2023-06-19T01:01:42;96548.75;;;18.41;53.41
70434;BME280;57876;47.792;12.960;2023-06-19T01:04:06;96541.22;;;18.38;53.27
70434;BME280;57876;47.792;12.960;2023-06-19T01:06:43;96536.88;;;18.37;53.41
70434;BME280;57876;47.792;12.960;2023-06-19T01:09:11;96549.88;;;18.40;53.37
70434;BME280;57876;47.792;12.960;2023-06-19T01:11:42;96533.66;;;18.35;53.40
70434;BME280;57876;47.792;12.960;2023-06-19T01:14:32;96536.41;;;18.35;53.24
70434;BME280;57876;47.792;12.960;2023-06-19T01:16:59;96535.75;;;18.38;53.29
70434;BME280;57876;47.792;12.960;2023-06-19T01:19:24;96528.41;;;18.30;53.31
70434;BME280;57876;47.792;12.960;2023-06-19T01:21:50;96529.34;;;18.34;53.45
70434;BME280;57876;47.792;12.960;2023-06-19T01:24:14;96536.41;;;18.35;53.19
70434;BME280;57876;47.792;12.960;2023-06-19T01:26:39;96535.28;;;18.36;53.44
70434;BME280;57876;47.792;12.960;2023-06-19T01:29:03;96532.06;;;18.34;53.40
70434;BME280;57876;47.792;12.960;2023-06-19T01:32:22;96542.81;;;18.39;53.32
70434;BME280;57876;47.792;12.960;2023-06-19T01:34:38;96546.69;;;18.38;53.36
70434;BME280;57876;47.792;12.960;2023-06-19T01:37:03;96540.28;;;18.34;53.31
70434;BME280;57876;47.792;12.960;2023-06-19T01:39:29;96531.28;;;18.33;53.23
70434;BME280;57876;47.792;12.960;2023-06-19T01:41:55;96526.50;;;18.30;53.10
70434;BME280;57876;47.792;12.960;2023-06-19T01:44:20;96530.13;;;18.34;53.42
70434;BME280;57876;47.792;12.960;2023-06-19T01:46:50;96523.75;;;18.30;53.27
70434;BME280;57876;47.792;12.960;2023-06-19T01:49:14;96531.59;;;18.32;53.55
70434;BME280;57876;47.792;12.960;2023-06-19T01:51:38;96541.44;;;18.33;53.47
70434;BME280;57876;47.792;12.960;2023-06-19T01:54:03;96535.97;;;18.33;53.47
70434;BME280;57876;47.792;12.960;2023-06-19T01:56:28;96540.75;;;18.36;53.40
70434;BME280;57876;47.792;12.960;2023-06-19T01:58:53;96543.03;;;18.34;53.37
70434;BME280;57876;47.792;12.960;2023-06-19T02:01:19;96538.25;;;18.31;53.33
70434;BME280;57876;47.792;12.960;2023-06-19T02:03:43;96539.13;;;18.35;53.14
70434;BME280;57876;47.792;12.960;2023-06-19T02:06:08;96538.00;;;18.36;53.49
70434;BME280;57876;47.792;12.960;2023-06-19T02:08:32;96538.34;;;18.34;53.44
70434;BME280;57876;47.792;12.960;2023-06-19T02:10:57;96532.88;;;18.34;53.56
70434;BME280;57876;47.792;12.960;2023-06-19T02:13:21;96537.88;;;18.32;53.32
70434;BME280;57876;47.792;12.960;2023-06-19T02:15:45;96541.88;;;18.35;53.56
70434;BME280;57876;47.792;12.960;2023-06-19T02:18:10;96539.13;;;18.35;53.25
70434;BME280;57876;47.792;12.960;2023-06-19T02:20:34;96546.91;;;18.33;53.30
70434;BME280;57876;47.792;12.960;2023-06-19T02:22:58;96539.03;;;18.31;53.48
70434;BME280;57876;47.792;12.960;2023-06-19T02:25:23;96539.81;;;18.32;53.45
70434;BME280;57876;47.792;12.960;2023-06-19T02:27:47;96537.09;;;18.32;53.42
70434;BME280;57876;47.792;12.960;2023-06-19T02:30:12;96534.34;;;18.32;53.39
70434;BME280;57876;47.792;12.960;2023-06-19T02:32:36;96537.31;;;18.26;53.52
70434;BME280;57876;47.792;12.960;2023-06-19T02:35:02;96535.81;;;18.29;53.37
70434;BME280;57876;47.792;12.960;2023-06-19T02:37:26;96527.63;;;18.29;53.45
70434;BME280;57876;47.792;12.960;2023-06-19T02:39:51;96539.03;;;18.31;53.45
70434;BME280;57876;47.792;12.960;2023-06-19T02:42:15;96535.50;;;18.31;53.37
70434;BME280;57876;47.792;12.960;2023-06-19T02:44:40;96535.50;;;18.31;53.34
70434;BME280;57876;47.792;12.960;2023-06-19T02:47:04;96542.56;;;18.32;53.50
70434;BME280;57876;47.792;12.960;2023-06-19T02:49:29;96537.88;;;18.32;53.53
70434;BME280;57876;47.792;12.960;2023-06-19T02:51:53;96529.88;;;18.27;53.46
70434;BME280;57876;47.792;12.960;2023-06-19T02:54:18;96527.72;;;18.20;53.34
70434;BME280;57876;47.792;12.960;2023-06-19T02:56:42;96536.63;;;18.30;53.48
70434;BME280;57876;47.792;12.960;2023-06-19T02:59:06;96548.03;;;18.32;53.67
70434;BME280;57876;47.792;12.960;2023-06-19T03:01:31;96536.19;;;18.27;53.47
70434;BME280;57876;47.792;12.960;2023-06-19T03:03:55;96536.19;;;18.27;53.36
70434;BME280;57876;47.792;12.960;2023-06-19T03:06:20;96540.84;;;18.27;53.32
70434;BME280;57876;47.792;12.960;2023-06-19T03:08:44;96539.63;;;18.24;53.53
70434;BME280;57876;47.792;12.960;2023-06-19T03:11:08;96546.44;;;18.31;53.56
70434;BME280;57876;47.792;12.960;2023-06-19T03:13:44;96546.31;;;18.27;53.64
70434;BME280;57876;47.792;12.960;2023-06-19T03:16:09;96544.41;;;18.27;53.59
70434;BME280;57876;47.792;12.960;2023-06-19T03:18:33;96548.25;;;18.26;53.57
70434;BME280;57876;47.792;12.960;2023-06-19T03:20:57;96556.25;;;18.32;53.60
70434;BME280;57876;47.792;12.960;2023-06-19T03:23:22;96556.59;;;18.30;53.56
70434;BME280;57876;47.792;12.960;2023-06-19T03:25:46;96559.34;;;18.30;53.45
70434;BME280;57876;47.792;12.960;2023-06-19T03:28:11;96548.94;;;18.23;53.47
70434;BME280;57876;47.792;12.960;2023-06-19T03:30:35;96542.56;;;18.19;53.33
70434;BME280;57876;47.792;12.960;2023-06-19T03:32:59;96558.19;;;18.31;53.78
70434;BME280;57876;47.792;12.960;2023-06-19T03:35:24;96554.53;;;18.27;53.51
70434;BME280;57876;47.792;12.960;2023-06-19T03:37:48;96554.19;;;18.29;53.37
70434;BME280;57876;47.792;12.960;2023-06-19T03:40:13;96555.78;;;18.30;53.42
70434;BME280;57876;47.792;12.960;2023-06-19T03:42:38;96570.72;;;18.32;53.43
70434;BME280;57876;47.792;12.960;2023-06-19T03:45:02;96575.41;;;18.32;53.56
70434;BME280;57876;47.792;12.960;2023-06-19T03:47:26;96567.44;;;18.26;53.38
70434;BME280;57876;47.792;12.960;2023-06-19T03:49:51;96563.56;;;18.27;53.71
70434;BME280;57876;47.792;12.960;2023-06-19T03:52:15;96569.03;;;18.27;53.56
70434;BME280;57876;47.792;12.960;2023-06-19T03:54:40;96570.63;;;18.29;53.33
70434;BME280;57876;47.792;12.960;2023-06-19T03:57:04;96573.38;;;18.29;53.53
70434;BME280;57876;47.792;12.960;2023-06-19T03:59:29;96580.00;;;18.27;53.71
70434;BME280;57876;47.792;12.960;2023-06-19T04:01:53;96582.03;;;18.31;53.37
70434;BME280;57876;47.792;12.960;2023-06-19T04:04:18;96581.13;;;18.26;53.44
70434;BME280;57876;47.792;12.960;2023-06-19T04:06:42;96589.09;;;18.32;53.41
70434;BME280;57876;47.792;12.960;2023-06-19T04:09:07;96592.19;;;18.30;53.63
70434;BME280;57876;47.792;12.960;2023-06-19T04:11:31;96588.19;;;18.27;53.42
70434;BME280;57876;47.792;12.960;2023-06-19T04:13:55;96595.25;;;18.29;53.48
70434;BME280;57876;47.792;12.960;2023-06-19T04:16:20;96585.91;;;18.17;53.40
70434;BME280;57876;47.792;12.960;2023-06-19T04:18:44;96572.91;;;18.14;53.59
70434;BME280;57876;47.792;12.960;2023-06-19T04:21:09;96602.00;;;18.31;53.54
70434;BME280;57876;47.792;12.960;2023-06-19T04:23:33;96596.41;;;18.27;53.47
70434;BME280;57876;47.792;12.960;2023-06-19T04:25:57;96597.22;;;18.28;53.49
70434;BME280;57876;47.792;12.960;2023-06-19T04:28:22;96583.94;;;18.18;53.58
70434;BME280;57876;47.792;12.960;2023-06-19T04:30:46;96588.88;;;18.24;53.42
70434;BME280;57876;47.792;12.960;2023-06-19T04:33:10;96597.69;;;18.30;53.29
70434;BME280;57876;47.792;12.960;2023-06-19T04:35:35;96592.06;;;18.26;53.49
70434;BME280;57876;47.792;12.960;2023-06-19T04:38:04;96596.28;;;18.24;53.50
70434;BME280;57876;47.792;12.960;2023-06-19T04:40:28;96594.81;;;18.26;53.41
70434;BME280;57876;47.792;12.960;2023-06-19T04:42:53;96604.16;;;18.25;53.47
70434;BME280;57876;47.792;12.960;2023-06-19T04:45:18;96597.09;;;18.24;53.61
70434;BME280;57876;47.792;12.960;2023-06-19T04:47:42;96597.91;;;18.25;53.58
70434;BME280;57876;47.792;12.960;2023-06-19T04:50:08;96604.06;;;18.22;53.47
70434;BME280;57876;47.792;12.960;2023-06-19T04:52:32;96612.03;;;18.27;53.57
70434;BME280;57876;47.792;12.960;2023-06-19T04:54:57;96606.09;;;18.25;53.65
70434;BME280;57876;47.792;12.960;2023-06-19T04:57:22;96600.84;;;18.20;53.54
70434;BME280;57876;47.792;12.960;2023-06-19T04:59:46;96612.03;;;18.27;53.48
70434;BME280;57876;47.792;12.960;2023-06-19T05:02:11;96608.06;;;18.24;53.56
70434;BME280;57876;47.792;12.960;2023-06-19T05:04:35;96623.31;;;18.25;53.49
70434;BME280;57876;47.792;12.960;2023-06-19T05:07:00;96621.38;;;18.26;53.62
70434;BME280;57876;47.792;12.960;2023-06-19T05:09:24;96612.91;;;18.19;53.64
70434;BME280;57876;47.792;12.960;2023-06-19T05:11:49;96629.13;;;18.24;53.59
70434;BME280;57876;47.792;12.960;2023-06-19T05:14:13;96624.47;;;18.24;53.62
70434;BME280;57876;47.792;12.960;2023-06-19T05:16:38;96638.59;;;18.26;53.49
70434;BME280;57876;47.792;12.960;2023-06-19T05:19:03;96630.75;;;18.25;53.53
70434;BME280;57876;47.792;12.960;2023-06-19T05:21:27;96640.06;;;18.24;53.55
70434;BME280;57876;47.792;12.960;2023-06-19T05:23:52;96643.28;;;18.26;53.73
70434;BME280;57876;47.792;12.960;2023-06-19T05:26:17;96636.22;;;18.25;53.70
70434;BME280;57876;47.792;12.960;2023-06-19T05:28:41;96647.97;;;18.25;53.48
70434;BME280;57876;47.792;12.960;2023-06-19T05:31:05;96644.88;;;18.27;53.43
70434;BME280;57876;47.792;12.960;2023-06-19T05:33:30;96633.69;;;18.20;53.48
70434;BME280;57876;47.792;12.960;2023-06-19T05:35:54;96642.97;;;18.27;53.49
70434;BME280;57876;47.792;12.960;2023-06-19T05:38:20;96642.13;;;18.27;53.37
70434;BME280;57876;47.792;12.960;2023-06-19T05:40:44;96642.13;;;18.27;53.47
70434;BME280;57876;47.792;12.960;2023-06-19T05:43:09;96625.81;;;18.18;53.47
70434;BME280;57876;47.792;12.960;2023-06-19T05:45:34;96648.44;;;18.27;53.53
70434;BME280;57876;47.792;12.960;2023-06-19T05:47:58;96644.75;;;18.23;53.77
70434;BME280;57876;47.792;12.960;2023-06-19T05:50:22;96643.03;;;18.19;53.57
70434;BME280;57876;47.792;12.960;2023-06-19T05:52:47;96660.50;;;18.26;53.67
70434;BME280;57876;47.792;12.960;2023-06-19T05:55:11;96661.66;;;18.25;53.75
70434;BME280;57876;47.792;12.960;2023-06-19T05:57:36;96652.38;;;18.18;53.63
70434;BME280;57876;47.792;12.960;2023-06-19T06:00:01;96666.78;;;18.27;53.47
70434;BME280;57876;47.792;12.960;2023-06-19T06:02:27;96657.66;;;18.23;53.14
70434;BME280;57876;47.792;12.960;2023-06-19T06:04:52;96664.72;;;18.24;53.41
70434;BME280;57876;47.792;12.960;2023-06-19T06:07:16;96666.66;;;18.23;53.43
70434;BME280;57876;47.792;12.960;2023-06-19T06:09:41;96663.91;;;18.23;53.60
70434;BME280;57876;47.792;12.960;2023-06-19T06:12:05;96677.59;;;18.23;53.55
70434;BME280;57876;47.792;12.960;2023-06-19T06:14:30;96690.28;;;18.28;53.44
70434;BME280;57876;47.792;12.960;2023-06-19T06:16:54;96680.03;;;18.25;53.39
70434;BME280;57876;47.792;12.960;2023-06-19T06:19:22;96678.88;;;18.26;53.52
70434;BME280;57876;47.792;12.960;2023-06-19T06:21:50;96677.59;;;18.23;53.51
70434;BME280;57876;47.792;12.960;2023-06-19T06:24:14;96687.44;;;18.24;53.58
70434;BME280;57876;47.792;12.960;2023-06-19T06:26:39;96696.78;;;18.23;53.45
70434;BME280;57876;47.792;12.960;2023-06-19T06:29:03;96710.25;;;18.29;53.57
70434;BME280;57876;47.792;12.960;2023-06-19T06:31:28;96700.31;;;18.24;53.34
70434;BME280;57876;47.792;12.960;2023-06-19T06:33:52;96712.53;;;18.26;53.44
70434;BME280;57876;47.792;12.960;2023-06-19T06:36:16;96707.94;;;18.18;53.55
70434;BME280;57876;47.792;12.960;2023-06-19T06:38:41;96719.63;;;18.27;53.63
70434;BME280;57876;47.792;12.960;2023-06-19T06:41:05;96723.81;;;18.25;53.53
70434;BME280;57876;47.792;12.960;2023-06-19T06:43:30;96739.56;;;18.28;53.53
70434;BME280;57876;47.792;12.960;2023-06-19T06:45:54;96730.88;;;18.26;53.60
70434;BME280;57876;47.792;12.960;2023-06-19T06:48:19;96741.84;;;18.26;53.43
70434;BME280;57876;47.792;12.960;2023-06-19T06:50:43;96750.19;;;18.30;53.56
70434;BME280;57876;47.792;12.960;2023-06-19T06:53:08;96737.50;;;18.25;53.42
70434;BME280;57876;47.792;12.960;2023-06-19T06:55:32;96752.91;;;18.30;53.54
70434;BME280;57876;47.792;12.960;2023-06-19T06:57:56;96756.69;;;18.25;53.42
70434;BME280;57876;47.792;12.960;2023-06-19T07:00:21;96762.47;;;18.23;53.41
70434;BME280;57876;47.792;12.960;2023-06-19T07:02:45;96764.09;;;18.24;53.56
70434;BME280;57876;47.792;12.960;2023-06-19T07:05:12;96770.81;;;18.27;53.58
70434;BME280;57876;47.792;12.960;2023-06-19T07:07:37;96773.53;;;18.27;53.55
70434;BME280;57876;47.792;12.960;2023-06-19T07:10:01;96759.75;;;18.23;53.53
70434;BME280;57876;47.792;12.960;2023-06-19T07:12:25;96756.31;;;18.26;53.65
70434;BME280;57876;47.792;12.960;2023-06-19T07:14:53;96770.50;;;18.29;53.45
70434;BME280;57876;47.792;12.960;2023-06-19T07:17:17;96770.50;;;18.29;53.50
70434;BME280;57876;47.792;12.960;2023-06-19T07:19:42;96774.81;;;18.30;53.54
70434;BME280;57876;47.792;12.960;2023-06-19T07:22:06;96770.81;;;18.27;53.60
70434;BME280;57876;47.792;12.960;2023-06-19T07:24:31;96775.66;;;18.30;53.43
70434;BME280;57876;47.792;12.960;2023-06-19T07:26:55;96775.16;;;18.28;53.46
70434;BME280;57876;47.792;12.960;2023-06-19T07:29:20;96770.16;;;18.30;53.48
70434;BME280;57876;47.792;12.960;2023-06-19T07:31:45;96767.75;;;18.29;53.38
70434;BME280;57876;47.792;12.960;2023-06-19T07:34:10;96767.28;;;18.26;53.61
70434;BME280;57876;47.792;12.960;2023-06-19T07:36:34;96765.69;;;18.25;53.50
70434;BME280;57876;47.792;12.960;2023-06-19T07:38:59;96783.50;;;18.32;53.55
70434;BME280;57876;47.792;12.960;2023-06-19T07:41:23;96781.44;;;18.29;53.51
70434;BME280;57876;47.792;12.960;2023-06-19T07:43:47;96781.13;;;18.30;53.52
70434;BME280;57876;47.792;12.960;2023-06-19T07:46:12;96774.50;;;18.31;53.39
70434;BME280;57876;47.792;12.960;2023-06-19T07:48:36;96778.81;;;18.32;53.47
70434;BME280;57876;47.792;12.960;2023-06-19T07:51:01;96775.66;;;18.30;53.40
70434;BME280;57876;47.792;12.960;2023-06-19T07:53:25;96779.66;;;18.33;53.47
70434;BME280;57876;47.792;12.960;2023-06-19T07:55:50;96773.88;;;18.46;53.46
70434;BME280;57876;47.792;12.960;2023-06-19T07:58:14;96782.88;;;18.47;53.49
70434;BME280;57876;47.792;12.960;2023-06-19T08:00:38;96764.28;;;18.40;53.41
70434;BME280;57876;47.792;12.960;2023-06-19T08:03:04;96776.16;;;18.44;53.31
70434;BME280;57876;47.792;12.960;2023-06-19T08:05:28;96774.56;;;18.43;53.48
70434;BME280;57876;47.792;12.960;2023-06-19T08:07:53;96772.34;;;18.37;53.25
70434;BME280;57876;47.792;12.960;2023-06-19T08:10:17;96766.28;;;18.31;53.62
70434;BME280;57876;47.792;12.960;2023-06-19T08:12:42;96771.44;;;18.33;53.28
70434;BME280;57876;47.792;12.960;2023-06-19T08:15:07;96771.44;;;18.33;53.42
70434;BME280;57876;47.792;12.960;2023-06-19T08:17:32;96768.03;;;18.36;53.43
70434;BME280;57876;47.792;12.960;2023-06-19T08:19:56;96777.28;;;18.43;53.36
70434;BME280;57876;47.792;12.960;2023-06-19T08:22:21;96782.41;;;18.45;53.33
70434;BME280;57876;47.792;12.960;2023-06-19T08:24:46;96784.84;;;18.46;53.42
70434;BME280;57876;47.792;12.960;2023-06-19T08:27:10;96783.09;;;18.42;53.68
70434;BME280;57876;47.792;12.960;2023-06-19T08:29:34;96781.63;;;18.44;53.55
70434;BME280;57876;47.792;12.960;2023-06-19T08:31:59;96772.81;;;18.39;53.44
70434;BME280;57876;47.792;12.960;2023-06-19T08:34:23;96774.09;;;18.41;53.71
70434;BME280;57876;47.792;12.960;2023-06-19T08:36:48;96772.03;;;18.38;53.24
70434;BME280;57876;47.792;12.960;2023-06-19T08:39:12;96768.69;;;18.33;53.32
70434;BME280;57876;47.792;12.960;2023-06-19T08:41:37;96747.31;;;18.26;53.44
70434;BME280;57876;47.792;12.960;2023-06-19T08:44:02;96759.53;;;18.29;53.30
70434;BME280;57876;47.792;12.960;2023-06-19T08:46:27;96749.72;;;18.27;53.50
70434;BME280;57876;47.792;12.960;2023-06-19T08:48:54;96766.53;;;18.38;53.47
70434;BME280;57876;47.792;12.960;2023-06-19T08:51:19;96773.72;;;18.43;53.32
70434;BME280;57876;47.792;12.960;2023-06-19T08:53:55;96779.22;;;18.43;53.20
70434;BME280;57876;47.792;12.960;2023-06-19T08:56:20;96766.66;;;18.42;53.35
70434;BME280;57876;47.792;12.960;2023-06-19T08:58:44;96772.03;;;18.38;53.47
70434;BME280;57876;47.792;12.960;2023-06-19T09:01:09;96751.66;;;18.27;53.25
70434;BME280;57876;47.792;12.960;2023-06-19T09:03:33;96751.00;;;18.30;53.33
70434;BME280;57876;47.792;12.960;2023-06-19T09:06:03;96757.47;;;18.25;53.67
70434;BME280;57876;47.792;12.960;2023-06-19T09:08:27;96745.84;;;18.29;53.38
70434;BME280;57876;47.792;12.960;2023-06-19T09:11:11;96762.06;;;18.34;53.20
70434;BME280;57876;47.792;12.960;2023-06-19T09:13:35;96751.31;;;18.29;53.34
70434;BME280;57876;47.792;12.960;2023-06-19T09:16:05;96751.13;;;18.34;53.28
70434;BME280;57876;47.792;12.960;2023-06-19T09:18:31;96769.75;;;18.40;53.36
70434;BME280;57876;47.792;12.960;2023-06-19T09:20:56;96759.91;;;18.39;53.33
70434;BME280;57876;47.792;12.960;2023-06-19T09:23:20;96759.44;;;18.37;53.28
70434;BME280;57876;47.792;12.960;2023-06-19T09:25:54;96757.97;;;18.40;53.25
70434;BME280;57876;47.792;12.960;2023-06-19T09:28:26;96747.38;;;18.38;53.46
70434;BME280;57876;47.792;12.960;2023-06-19T09:33:20;96735.84;;;18.33;53.06
70434;BME280;57876;47.792;12.960;2023-06-19T09:35:45;96723.47;;;18.26;53.35
70434;BME280;57876;47.792;12.960;2023-06-19T09:38:10;96732.75;;;18.34;53.42
70434;BME280;57876;47.792;12.960;2023-06-19T09:40:35;96742.91;;;18.34;53.40
70434;BME280;57876;47.792;12.960;2023-06-19T09:43:02;96731.16;;;18.33;53.35
70434;BME280;57876;47.792;12.960;2023-06-19T09:45:29;96726.00;;;18.32;53.42
70434;BME280;57876;47.792;12.960;2023-06-19T09:47:55;96724.06;;;18.32;53.38
70434;BME280;57876;47.792;12.960;2023-06-19T09:50:22;96725.69;;;18.33;53.31
70434;BME280;57876;47.792;12.960;2023-06-19T09:52:47;96729.69;;;18.36;53.38
70434;BME280;57876;47.792;12.960;2023-06-19T09:55:12;96721.69;;;18.31;53.43
70434;BME280;57876;47.792;12.960;2023-06-19T09:57:37;96708.88;;;18.22;53.39
70434;BME280;57876;47.792;12.960;2023-06-19T10:00:05;96718.94;;;18.31;53.47
70434;BME280;57876;47.792;12.960;2023-06-19T10:02:46;96712.09;;;18.24;53.49
70434;BME280;57876;47.792;12.960;2023-06-19T10:05:11;96716.63;;;18.20;53.28
70434;BME280;57876;47.792;12.960;2023-06-19T10:07:42;96727.16;;;18.31;53.25
70434;BME280;57876;47.792;12.960;2023-06-19T10:10:09;96733.22;;;18.36;53.31
70434;BME280;57876;47.792;12.960;2023-06-19T10:15:08;96698.94;;;18.18;53.38
70434;BME280;57876;47.792;12.960;2023-06-19T10:17:33;96715.41;;;18.30;53.23
70434;BME280;57876;47.792;12.960;2023-06-19T10:19:57;96720.19;;;18.33;53.27
70434;BME280;57876;47.792;12.960;2023-06-19T10:22:22;96696.31;;;18.21;53.24
70434;BME280;57876;47.792;12.960;2023-06-19T10:24:50;96700.69;;;18.35;53.40
70434;BME280;57876;47.792;12.960;2023-06-19T10:27:21;96694.03;;;18.23;53.23
70434;BME280;57876;47.792;12.960;2023-06-19T10:29:52;96695.78;;;18.28;53.32
70434;BME280;57876;47.792;12.960;2023-06-19T10:32:16;96697.72;;;18.27;53.38
70434;BME280;57876;47.792;12.960;2023-06-19T10:34:45;96688.56;;;18.23;53.17
70434;BME280;57876;47.792;12.960;2023-06-19T10:37:11;96671.56;;;18.18;53.36
70434;BME280;57876;47.792;12.960;2023-06-19T10:39:36;96695.41;;;18.30;53.28
70434;BME280;57876;47.792;12.960;2023-06-19T10:42:05;96700.69;;;18.35;53.08
70434;BME280;57876;47.792;12.960;2023-06-19T10:44:30;96680.03;;;18.25;53.22
70434;BME280;57876;47.792;12.960;2023-06-19T10:46:54;96676.03;;;18.22;53.32
70434;BME280;57876;47.792;12.960;2023-06-19T10:49:20;96675.34;;;18.25;53.26
70434;BME280;57876;47.792;12.960;2023-06-19T10:51:45;96680.03;;;18.25;53.44
70434;BME280;57876;47.792;12.960;2023-06-19T10:54:09;96672.34;;;18.18;53.26
70434;BME280;57876;47.792;12.960;2023-06-19T10:56:34;96679.47;;;18.32;53.17
70434;BME280;57876;47.792;12.960;2023-06-19T10:59:00;96680.25;;;18.32;53.51
70434;BME280;57876;47.792;12.960;2023-06-19T11:01:34;96658.66;;;18.18;53.26
70434;BME280;57876;47.792;12.960;2023-06-19T11:04:02;96660.72;;;18.21;53.28
70434;BME280;57876;47.792;12.960;2023-06-19T11:06:28;96671.59;;;18.30;53.14
70434;BME280;57876;47.792;12.960;2023-06-19T11:08:52;96651.59;;;18.17;53.22
70434;BME280;57876;47.792;12.960;2023-06-19T11:11:17;96661.19;;;18.23;53.37
70434;BME280;57876;47.792;12.960;2023-06-19T11:13:43;96656.38;;;18.20;53.40
70434;BME280;57876;47.792;12.960;2023-06-19T11:16:07;96656.50;;;18.24;53.34
70434;BME280;57876;47.792;12.960;2023-06-19T11:18:32;96663.59;;;18.25;53.51
70434;BME280;57876;47.792;12.960;2023-06-19T11:20:56;96659.16;;;18.33;53.42
70434;BME280;57876;47.792;12.960;2023-06-19T11:23:29;96663.03;;;18.32;53.59
70434;BME280;57876;47.792;12.960;2023-06-19T11:25:54;96658.34;;;18.32;53.25
70434;BME280;57876;47.792;12.960;2023-06-19T11:28:26;96645.56;;;18.24;53.15
70434;BME280;57876;47.792;12.960;2023-06-19T11:30:58;96657.56;;;18.32;53.70
70434;BME280;57876;47.792;12.960;2023-06-19T11:33:23;96657.56;;;18.32;53.41
70434;BME280;57876;47.792;12.960;2023-06-19T11:35:48;96656.09;;;18.34;53.53
70434;BME280;57876;47.792;12.960;2023-06-19T11:38:20;96649.34;;;18.32;52.99
70434;BME280;57876;47.792;12.960;2023-06-19T11:40:45;96653.00;;;18.36;53.32
70434;BME280;57876;47.792;12.960;2023-06-19T11:43:10;96650.59;;;18.34;53.24
70434;BME280;57876;47.792;12.960;2023-06-19T11:45:45;96642.28;;;18.31;53.42
70434;BME280;57876;47.792;12.960;2023-06-19T11:48:09;96639.06;;;18.29;53.47
70434;BME280;57876;47.792;12.960;2023-06-19T11:50:33;96649.81;;;18.34;53.39
70434;BME280;57876;47.792;12.960;2023-06-19T11:52:58;96644.53;;;18.29;53.30
70434;BME280;57876;47.792;12.960;2023-06-19T11:55:24;96631.34;;;18.43;53.26
70434;BME280;57876;47.792;12.960;2023-06-19T11:57:48;96643.22;;;18.47;53.24
70434;BME280;57876;47.792;12.960;2023-06-19T12:00:14;96635.69;;;18.44;53.24
70434;BME280;57876;47.792;12.960;2023-06-19T12:02:39;96626.53;;;18.40;53.29
70434;BME280;57876;47.792;12.960;2023-06-19T12:05:04;96635.34;;;18.45;53.25
70434;BME280;57876;47.792;12.960;2023-06-19T12:07:28;96631.34;;;18.43;53.37
70434;BME280;57876;47.792;12.960;2023-06-19T12:09:53;96627.47;;;18.44;53.24
70434;BME280;57876;47.792;12.960;2023-06-19T12:12:17;96630.69;;;18.46;53.30
70434;BME280;57876;47.792;12.960;2023-06-19T12:14:42;96618.78;;;18.42;53.57
70434;BME280;57876;47.792;12.960;2023-06-19T12:17:06;96621.63;;;18.45;53.05
70434;BME280;57876;47.792;12.960;2023-06-19T12:19:31;96617.31;;;18.44;53.53
70434;BME280;57876;47.792;12.960;2023-06-19T12:21:55;96621.19;;;18.43;53.28
70434;BME280;57876;47.792;12.960;2023-06-19T12:24:19;96615.03;;;18.46;53.39
70434;BME280;57876;47.792;12.960;2023-06-19T12:26:44;96616.06;;;18.42;53.26
70434;BME280;57876;47.792;12.960;2023-06-19T12:29:09;96620.38;;;18.43;53.19
70434;BME280;57876;47.792;12.960;2023-06-19T12:31:34;96622.47;;;18.46;53.20
70434;BME280;57876;47.792;12.960;2023-06-19T12:34:00;96621.19;;;18.43;53.24
70434;BME280;57876;47.792;12.960;2023-06-19T12:36:28;96624.28;;;18.42;53.21
70434;BME280;57876;47.792;12.960;2023-06-19T12:38:53;96616.97;;;18.46;53.09
70434;BME280;57876;47.792;12.960;2023-06-19T12:41:20;96616.97;;;18.46;53.18
70434;BME280;57876;47.792;12.960;2023-06-19T12:43:45;96613.44;;;18.45;53.21
70434;BME280;57876;47.792;12.960;2023-06-19T12:46:10;96614.91;;;18.43;53.38